sensor_id;sensor_type;location;lat;lon;timestamp;P1;durP1;ratioP1;P2;durP2;ratioP2
13580;SDS011;6861;46.170;7.222;2023-07-20T00:00:00;3.75;;;3.00;;
13580;SDS011;6861;46.170;7.222;2023-07-20T00:02:49;4.97;;;3.20;;
13580;SDS011;6861;46.170;7.222;2023-07-20T00:05:18;4.55;;;3.13;;
13580;SDS011;6861;46.170;7.222;2023-07-20T00:07:47;4.80;;;2.80;;
13580;SDS011;6861;46.170;7.222;2023-07-20T00:10:18;3.85;;;2.90;;
13580;SDS011;6861;46.170;7.222;2023-07-20T00:12:46;4.72;;;3.22;;
13580;SDS011;6861;46.170;7.222;2023-07-20T00:15:16;3.90;;;3.08;;
13580;SDS011;6861;46.170;7.222;2023-07-20T00:17:44;4.47;;;3.30;;
13580;SDS011;6861;46.170;7.222;2023-07-20T00:20:13;5.43;;;3.13;;
13580;SDS011;6861;46.170;7.222;2023-07-20T00:22:41;4.07;;;3.20;;
13580;SDS011;6861;46.170;7.222;2023-07-20T00:25:09;4.28;;;3.10;;
13580;SDS011;6861;46.170;7.222;2023-07-20T00:27:38;5.85;;;3.67;;
13580;SDS011;6861;46.170;7.222;2023-07-20T00:30:06;6.35;;;3.13;;
13580;SDS011;6861;46.170;7.222;2023-07-20T00:32:37;4.30;;;3.33;;
13580;SDS011;6861;46.170;7.222;2023-07-20T00:35:05;4.40;;;3.20;;
13580;SDS011;6861;46.170;7.222;2023-07-20T00:37:34;5.38;;;2.95;;
13580;SDS011;6861;46.170;7.222;2023-07-20T00:40:02;5.47;;;3.42;;
13580;SDS011;6861;46.170;7.222;2023-07-20T00:42:31;4.53;;;3.13;;
13580;SDS011;6861;46.170;7.222;2023-07-20T00:44:59;5.32;;;3.20;;
13580;SDS011;6861;46.170;7.222;2023-07-20T00:47:27;5.40;;;3.45;;
13580;SDS011;6861;46.170;7.222;2023-07-20T00:49:57;5.30;;;3.53;;
13580;SDS011;6861;46.170;7.222;2023-07-20T00:52:25;5.95;;;3.65;;
13580;SDS011;6861;46.170;7.222;2023-07-20T00:54:55;4.78;;;3.03;;
13580;SDS011;6861;46.170;7.222;2023-07-20T00:57:24;5.40;;;3.53;;
13580;SDS011;6861;46.170;7.222;2023-07-20T00:59:53;5.95;;;3.25;;
13580;SDS011;6861;46.170;7.222;2023-07-20T01:02:21;6.05;;;3.30;;
13580;SDS011;6861;46.170;7.222;2023-07-20T01:04:49;5.15;;;3.30;;
13580;SDS011;6861;46.170;7.222;2023-07-20T01:07:21;6.10;;;3.40;;
13580;SDS011;6861;46.170;7.222;2023-07-20T01:09:55;4.07;;;2.90;;
13580;SDS011;6861;46.170;7.222;2023-07-20T01:12:30;5.82;;;3.10;;
13580;SDS011;6861;46.170;7.222;2023-07-20T01:15:03;6.20;;;3.40;;
13580;SDS011;6861;46.170;7.222;2023-07-20T01:17:34;3.90;;;3.33;;
13580;SDS011;6861;46.170;7.222;2023-07-20T01:20:02;6.57;;;3.30;;
13580;SDS011;6861;46.170;7.222;2023-07-20T01:22:42;5.30;;;3.47;;
13580;SDS011;6861;46.170;7.222;2023-07-20T01:25:26;5.35;;;3.20;;
13580;SDS011;6861;46.170;7.222;2023-07-20T01:31:16;4.78;;;3.40;;
13580;SDS011;6861;46.170;7.222;2023-07-20T01:33:47;5.13;;;3.00;;
13580;SDS011;6861;46.170;7.222;2023-07-20T01:36:18;4.80;;;3.30;;
13580;SDS011;6861;46.170;7.222;2023-07-20T01:38:49;4.82;;;3.17;;
13580;SDS011;6861;46.170;7.222;2023-07-20T01:41:19;4.22;;;3.20;;
13580;SDS011;6861;46.170;7.222;2023-07-20T01:43:48;4.40;;;2.88;;
13580;SDS011;6861;46.170;7.222;2023-07-20T01:46:17;5.28;;;3.08;;
13580;SDS011;6861;46.170;7.222;2023-07-20T01:48:46;5.45;;;4.03;;
13580;SDS011;6861;46.170;7.222;2023-07-20T01:51:14;4.55;;;3.30;;
13580;SDS011;6861;46.170;7.222;2023-07-20T01:53:44;4.28;;;3.10;;
13580;SDS011;6861;46.170;7.222;2023-07-20T01:56:12;4.78;;;3.33;;
13580;SDS011;6861;46.170;7.222;2023-07-20T01:58:40;5.63;;;3.15;;
13580;SDS011;6861;46.170;7.222;2023-07-20T02:01:08;5.05;;;3.13;;
13580;SDS011;6861;46.170;7.222;2023-07-20T02:03:38;4.18;;;2.95;;
13580;SDS011;6861;46.170;7.222;2023-07-20T02:06:06;5.65;;;3.30;;
13580;SDS011;6861;46.170;7.222;2023-07-20T02:08:34;4.22;;;3.50;;
13580;SDS011;6861;46.170;7.222;2023-07-20T02:11:02;4.72;;;2.95;;
13580;SDS011;6861;46.170;7.222;2023-07-20T02:13:31;4.47;;;3.10;;
13580;SDS011;6861;46.170;7.222;2023-07-20T02:15:59;4.10;;;3.20;;
13580;SDS011;6861;46.170;7.222;2023-07-20T02:18:27;4.97;;;2.80;;
13580;SDS011;6861;46.170;7.222;2023-07-20T02:20:56;3.70;;;3.00;;
13580;SDS011;6861;46.170;7.222;2023-07-20T02:23:25;4.70;;;3.10;;
13580;SDS011;6861;46.170;7.222;2023-07-20T02:25:53;4.30;;;3.30;;
13580;SDS011;6861;46.170;7.222;2023-07-20T02:28:21;4.82;;;3.20;;
13580;SDS011;6861;46.170;7.222;2023-07-20T02:30:50;5.40;;;2.97;;
13580;SDS011;6861;46.170;7.222;2023-07-20T02:33:18;3.90;;;3.20;;
13580;SDS011;6861;46.170;7.222;2023-07-20T02:35:46;4.97;;;3.08;;
13580;SDS011;6861;46.170;7.222;2023-07-20T02:38:16;5.03;;;3.20;;
13580;SDS011;6861;46.170;7.222;2023-07-20T02:40:44;5.38;;;3.40;;
13580;SDS011;6861;46.170;7.222;2023-07-20T02:43:12;4.40;;;3.28;;
13580;SDS011;6861;46.170;7.222;2023-07-20T02:45:40;5.18;;;3.35;;
13580;SDS011;6861;46.170;7.222;2023-07-20T02:48:09;5.72;;;3.35;;
13580;SDS011;6861;46.170;7.222;2023-07-20T02:50:37;5.07;;;2.95;;
13580;SDS011;6861;46.170;7.222;2023-07-20T02:53:05;5.97;;;3.53;;
13580;SDS011;6861;46.170;7.222;2023-07-20T02:55:35;6.13;;;3.45;;
13580;SDS011;6861;46.170;7.222;2023-07-20T02:58:03;4.32;;;3.10;;
13580;SDS011;6861;46.170;7.222;2023-07-20T03:00:32;5.18;;;3.10;;
13580;SDS011;6861;46.170;7.222;2023-07-20T03:03:00;5.00;;;3.40;;
13580;SDS011;6861;46.170;7.222;2023-07-20T03:05:29;3.88;;;3.45;;
13580;SDS011;6861;46.170;7.222;2023-07-20T03:07:57;6.07;;;3.08;;
13580;SDS011;6861;46.170;7.222;2023-07-20T03:10:29;5.05;;;3.35;;
13580;SDS011;6861;46.170;7.222;2023-07-20T03:12:59;4.75;;;3.15;;
13580;SDS011;6861;46.170;7.222;2023-07-20T03:15:27;4.30;;;3.30;;
13580;SDS011;6861;46.170;7.222;2023-07-20T03:17:55;4.57;;;2.95;;
13580;SDS011;6861;46.170;7.222;2023-07-20T03:20:25;4.63;;;3.28;;
13580;SDS011;6861;46.170;7.222;2023-07-20T03:22:53;4.95;;;3.20;;
13580;SDS011;6861;46.170;7.222;2023-07-20T03:25:21;4.95;;;3.17;;
13580;SDS011;6861;46.170;7.222;2023-07-20T03:27:53;4.18;;;3.00;;
13580;SDS011;6861;46.170;7.222;2023-07-20T03:30:22;4.85;;;3.13;;
13580;SDS011;6861;46.170;7.222;2023-07-20T03:32:52;4.00;;;2.88;;
13580;SDS011;6861;46.170;7.222;2023-07-20T03:35:20;4.05;;;2.97;;
13580;SDS011;6861;46.170;7.222;2023-07-20T03:37:48;3.42;;;2.67;;
13580;SDS011;6861;46.170;7.222;2023-07-20T03:40:16;7.25;;;2.90;;
13580;SDS011;6861;46.170;7.222;2023-07-20T03:42:45;3.70;;;2.97;;
13580;SDS011;6861;46.170;7.222;2023-07-20T03:45:13;6.47;;;3.38;;
13580;SDS011;6861;46.170;7.222;2023-07-20T03:47:43;4.75;;;2.88;;
13580;SDS011;6861;46.170;7.222;2023-07-20T03:50:11;3.75;;;3.00;;
13580;SDS011;6861;46.170;7.222;2023-07-20T03:52:39;4.07;;;2.97;;
13580;SDS011;6861;46.170;7.222;2023-07-20T03:55:08;4.57;;;3.47;;
13580;SDS011;6861;46.170;7.222;2023-07-20T03:57:36;4.85;;;3.20;;
13580;SDS011;6861;46.170;7.222;2023-07-20T04:00:05;4.55;;;3.45;;
13580;SDS011;6861;46.170;7.222;2023-07-20T04:02:34;6.35;;;3.20;;
13580;SDS011;6861;46.170;7.222;2023-07-20T04:05:04;3.70;;;2.97;;
13580;SDS011;6861;46.170;7.222;2023-07-20T04:07:33;5.35;;;3.50;;
13580;SDS011;6861;46.170;7.222;2023-07-20T04:10:01;6.50;;;3.70;;
13580;SDS011;6861;46.170;7.222;2023-07-20T04:12:30;4.70;;;3.42;;
13580;SDS011;6861;46.170;7.222;2023-07-20T04:14:58;5.38;;;3.60;;
13580;SDS011;6861;46.170;7.222;2023-07-20T04:17:27;4.25;;;3.63;;
13580;SDS011;6861;46.170;7.222;2023-07-20T04:19:55;7.07;;;3.55;;
13580;SDS011;6861;46.170;7.222;2023-07-20T04:22:25;5.85;;;3.28;;
13580;SDS011;6861;46.170;7.222;2023-07-20T04:24:53;5.75;;;3.20;;
13580;SDS011;6861;46.170;7.222;2023-07-20T04:27:22;5.70;;;3.60;;
13580;SDS011;6861;46.170;7.222;2023-07-20T04:29:50;5.38;;;3.47;;
13580;SDS011;6861;46.170;7.222;2023-07-20T04:32:18;4.57;;;2.95;;
13580;SDS011;6861;46.170;7.222;2023-07-20T04:34:46;4.35;;;3.10;;
13580;SDS011;6861;46.170;7.222;2023-07-20T04:37:15;3.83;;;2.90;;
13580;SDS011;6861;46.170;7.222;2023-07-20T04:39:44;5.75;;;3.38;;
13580;SDS011;6861;46.170;7.222;2023-07-20T04:42:13;3.97;;;2.90;;
13580;SDS011;6861;46.170;7.222;2023-07-20T04:44:41;5.93;;;3.30;;
13580;SDS011;6861;46.170;7.222;2023-07-20T04:47:10;4.72;;;3.50;;
13580;SDS011;6861;46.170;7.222;2023-07-20T04:49:38;5.47;;;3.80;;
13580;SDS011;6861;46.170;7.222;2023-07-20T04:52:07;6.03;;;3.72;;
13580;SDS011;6861;46.170;7.222;2023-07-20T04:54:35;5.05;;;3.45;;
13580;SDS011;6861;46.170;7.222;2023-07-20T04:57:11;6.47;;;3.40;;
13580;SDS011;6861;46.170;7.222;2023-07-20T04:59:40;5.97;;;3.33;;
13580;SDS011;6861;46.170;7.222;2023-07-20T05:02:08;4.88;;;3.63;;
13580;SDS011;6861;46.170;7.222;2023-07-20T05:04:36;6.57;;;3.58;;
13580;SDS011;6861;46.170;7.222;2023-07-20T05:07:05;4.45;;;3.42;;
13580;SDS011;6861;46.170;7.222;2023-07-20T05:09:33;4.13;;;3.35;;
13580;SDS011;6861;46.170;7.222;2023-07-20T05:12:01;4.03;;;2.97;;
13580;SDS011;6861;46.170;7.222;2023-07-20T05:14:31;4.43;;;3.08;;
13580;SDS011;6861;46.170;7.222;2023-07-20T05:17:00;5.88;;;3.70;;
13580;SDS011;6861;46.170;7.222;2023-07-20T05:19:28;7.45;;;3.47;;
13580;SDS011;6861;46.170;7.222;2023-07-20T05:21:56;8.10;;;3.97;;
13580;SDS011;6861;46.170;7.222;2023-07-20T05:24:24;6.22;;;3.83;;
13580;SDS011;6861;46.170;7.222;2023-07-20T05:26:52;5.78;;;4.03;;
13580;SDS011;6861;46.170;7.222;2023-07-20T05:29:21;9.27;;;4.00;;
13580;SDS011;6861;46.170;7.222;2023-07-20T05:31:50;5.65;;;3.70;;
13580;SDS011;6861;46.170;7.222;2023-07-20T05:34:18;6.50;;;3.78;;
13580;SDS011;6861;46.170;7.222;2023-07-20T05:36:47;7.00;;;4.20;;
13580;SDS011;6861;46.170;7.222;2023-07-20T05:39:16;5.57;;;3.72;;
13580;SDS011;6861;46.170;7.222;2023-07-20T05:41:45;8.73;;;3.95;;
13580;SDS011;6861;46.170;7.222;2023-07-20T05:44:13;4.03;;;3.40;;
13580;SDS011;6861;46.170;7.222;2023-07-20T05:46:41;6.75;;;3.78;;
13580;SDS011;6861;46.170;7.222;2023-07-20T05:49:24;5.72;;;3.50;;
13580;SDS011;6861;46.170;7.222;2023-07-20T05:51:52;6.05;;;4.05;;
13580;SDS011;6861;46.170;7.222;2023-07-20T05:54:20;5.82;;;3.70;;
13580;SDS011;6861;46.170;7.222;2023-07-20T05:56:48;4.80;;;3.10;;
13580;SDS011;6861;46.170;7.222;2023-07-20T05:59:16;5.20;;;3.22;;
13580;SDS011;6861;46.170;7.222;2023-07-20T06:01:45;9.23;;;3.85;;
13580;SDS011;6861;46.170;7.222;2023-07-20T06:04:15;9.57;;;3.28;;
13580;SDS011;6861;46.170;7.222;2023-07-20T06:06:44;6.13;;;3.47;;
13580;SDS011;6861;46.170;7.222;2023-07-20T06:09:13;9.20;;;3.50;;
13580;SDS011;6861;46.170;7.222;2023-07-20T06:11:41;9.05;;;4.28;;
13580;SDS011;6861;46.170;7.222;2023-07-20T06:14:09;6.10;;;3.33;;
13580;SDS011;6861;46.170;7.222;2023-07-20T06:16:37;3.90;;;2.90;;
13580;SDS011;6861;46.170;7.222;2023-07-20T06:19:05;5.43;;;3.03;;
13580;SDS011;6861;46.170;7.222;2023-07-20T06:21:34;6.57;;;3.50;;
13580;SDS011;6861;46.170;7.222;2023-07-20T06:24:04;7.45;;;3.33;;
13580;SDS011;6861;46.170;7.222;2023-07-20T06:26:32;4.88;;;2.92;;
13580;SDS011;6861;46.170;7.222;2023-07-20T06:29:05;4.35;;;3.35;;
13580;SDS011;6861;46.170;7.222;2023-07-20T06:31:34;5.05;;;3.08;;
13580;SDS011;6861;46.170;7.222;2023-07-20T06:34:02;5.65;;;3.10;;
13580;SDS011;6861;46.170;7.222;2023-07-20T06:36:31;6.70;;;3.22;;
13580;SDS011;6861;46.170;7.222;2023-07-20T06:38:59;5.05;;;3.25;;
13580;SDS011;6861;46.170;7.222;2023-07-20T06:41:33;6.03;;;2.90;;
13580;SDS011;6861;46.170;7.222;2023-07-20T06:44:04;4.40;;;2.97;;
13580;SDS011;6861;46.170;7.222;2023-07-20T06:46:34;5.28;;;3.50;;
13580;SDS011;6861;46.170;7.222;2023-07-20T06:49:02;4.78;;;3.17;;
13580;SDS011;6861;46.170;7.222;2023-07-20T06:51:36;6.82;;;3.50;;
13580;SDS011;6861;46.170;7.222;2023-07-20T06:54:05;4.00;;;3.10;;
13580;SDS011;6861;46.170;7.222;2023-07-20T06:56:34;4.68;;;3.60;;
13580;SDS011;6861;46.170;7.222;2023-07-20T06:59:03;4.70;;;2.60;;
13580;SDS011;6861;46.170;7.222;2023-07-20T07:01:32;4.20;;;3.17;;
13580;SDS011;6861;46.170;7.222;2023-07-20T07:04:00;3.65;;;2.90;;
13580;SDS011;6861;46.170;7.222;2023-07-20T07:06:29;3.75;;;3.10;;
13580;SDS011;6861;46.170;7.222;2023-07-20T07:08:57;3.53;;;3.00;;
13580;SDS011;6861;46.170;7.222;2023-07-20T07:11:25;4.47;;;3.25;;
13580;SDS011;6861;46.170;7.222;2023-07-20T07:13:55;3.63;;;3.22;;
13580;SDS011;6861;46.170;7.222;2023-07-20T07:16:23;5.45;;;2.95;;
13580;SDS011;6861;46.170;7.222;2023-07-20T07:18:52;6.05;;;3.33;;
13580;SDS011;6861;46.170;7.222;2023-07-20T07:21:26;3.70;;;3.15;;
13580;SDS011;6861;46.170;7.222;2023-07-20T07:23:54;4.10;;;3.05;;
13580;SDS011;6861;46.170;7.222;2023-07-20T07:26:24;5.22;;;3.08;;
13580;SDS011;6861;46.170;7.222;2023-07-20T07:28:52;4.35;;;3.03;;
13580;SDS011;6861;46.170;7.222;2023-07-20T07:31:22;4.72;;;3.22;;
13580;SDS011;6861;46.170;7.222;2023-07-20T07:33:50;5.00;;;3.10;;
13580;SDS011;6861;46.170;7.222;2023-07-20T07:36:19;4.15;;;3.35;;
13580;SDS011;6861;46.170;7.222;2023-07-20T07:38:47;6.10;;;3.33;;
13580;SDS011;6861;46.170;7.222;2023-07-20T07:41:35;5.65;;;3.28;;
13580;SDS011;6861;46.170;7.222;2023-07-20T07:44:04;4.70;;;3.22;;
13580;SDS011;6861;46.170;7.222;2023-07-20T07:46:34;4.57;;;3.13;;
13580;SDS011;6861;46.170;7.222;2023-07-20T07:49:02;4.00;;;3.35;;
13580;SDS011;6861;46.170;7.222;2023-07-20T07:51:30;4.38;;;3.30;;
13580;SDS011;6861;46.170;7.222;2023-07-20T07:53:58;4.80;;;3.13;;
13580;SDS011;6861;46.170;7.222;2023-07-20T07:56:27;4.72;;;3.25;;
13580;SDS011;6861;46.170;7.222;2023-07-20T07:58:55;5.03;;;3.65;;
13580;SDS011;6861;46.170;7.222;2023-07-20T08:01:23;3.80;;;3.00;;
13580;SDS011;6861;46.170;7.222;2023-07-20T08:03:53;5.55;;;3.33;;
13580;SDS011;6861;46.170;7.222;2023-07-20T08:06:21;4.78;;;2.92;;
13580;SDS011;6861;46.170;7.222;2023-07-20T08:08:51;5.65;;;3.13;;
13580;SDS011;6861;46.170;7.222;2023-07-20T08:11:19;5.15;;;3.35;;
13580;SDS011;6861;46.170;7.222;2023-07-20T08:13:47;4.75;;;3.15;;
13580;SDS011;6861;46.170;7.222;2023-07-20T08:16:15;4.45;;;3.10;;
13580;SDS011;6861;46.170;7.222;2023-07-20T08:18:44;4.38;;;3.25;;
13580;SDS011;6861;46.170;7.222;2023-07-20T08:21:14;5.53;;;3.47;;
13580;SDS011;6861;46.170;7.222;2023-07-20T08:23:42;5.05;;;3.28;;
13580;SDS011;6861;46.170;7.222;2023-07-20T08:26:10;4.93;;;3.00;;
13580;SDS011;6861;46.170;7.222;2023-07-20T08:28:38;6.43;;;3.25;;
13580;SDS011;6861;46.170;7.222;2023-07-20T08:31:07;4.18;;;2.95;;
13580;SDS011;6861;46.170;7.222;2023-07-20T08:33:35;3.83;;;3.00;;
13580;SDS011;6861;46.170;7.222;2023-07-20T08:36:03;3.75;;;2.97;;
13580;SDS011;6861;46.170;7.222;2023-07-20T08:38:34;6.38;;;3.58;;
13580;SDS011;6861;46.170;7.222;2023-07-20T08:41:02;5.35;;;3.15;;
13580;SDS011;6861;46.170;7.222;2023-07-20T08:43:30;5.50;;;3.35;;
13580;SDS011;6861;46.170;7.222;2023-07-20T08:46:01;5.28;;;3.10;;
13580;SDS011;6861;46.170;7.222;2023-07-20T08:48:31;5.45;;;3.42;;
13580;SDS011;6861;46.170;7.222;2023-07-20T08:51:00;7.63;;;2.97;;
13580;SDS011;6861;46.170;7.222;2023-07-20T08:53:31;4.20;;;2.78;;
13580;SDS011;6861;46.170;7.222;2023-07-20T08:56:02;3.88;;;2.65;;
13580;SDS011;6861;46.170;7.222;2023-07-20T08:58:31;4.00;;;2.83;;
13580;SDS011;6861;46.170;7.222;2023-07-20T09:01:01;3.70;;;2.30;;
13580;SDS011;6861;46.170;7.222;2023-07-20T09:03:32;4.30;;;2.50;;
13580;SDS011;6861;46.170;7.222;2023-07-20T09:06:00;5.07;;;1.98;;
13580;SDS011;6861;46.170;7.222;2023-07-20T09:08:28;2.97;;;2.22;;
13580;SDS011;6861;46.170;7.222;2023-07-20T09:10:58;3.75;;;2.15;;
13580;SDS011;6861;46.170;7.222;2023-07-20T09:13:26;4.45;;;2.30;;
13580;SDS011;6861;46.170;7.222;2023-07-20T09:15:55;5.50;;;2.47;;
13580;SDS011;6861;46.170;7.222;2023-07-20T09:18:23;2.50;;;1.98;;
13580;SDS011;6861;46.170;7.222;2023-07-20T09:20:52;3.88;;;2.30;;
13580;SDS011;6861;46.170;7.222;2023-07-20T09:23:21;3.63;;;2.42;;
13580;SDS011;6861;46.170;7.222;2023-07-20T09:25:59;3.10;;;2.13;;
13580;SDS011;6861;46.170;7.222;2023-07-20T09:28:28;4.50;;;2.45;;
13580;SDS011;6861;46.170;7.222;2023-07-20T09:30:56;6.20;;;2.45;;
13580;SDS011;6861;46.170;7.222;2023-07-20T09:33:25;3.63;;;2.50;;
13580;SDS011;6861;46.170;7.222;2023-07-20T09:35:54;3.50;;;2.40;;
13580;SDS011;6861;46.170;7.222;2023-07-20T09:38:49;3.00;;;2.28;;
13580;SDS011;6861;46.170;7.222;2023-07-20T09:41:21;6.63;;;2.75;;
13580;SDS011;6861;46.170;7.222;2023-07-20T09:43:53;3.60;;;2.70;;
13580;SDS011;6861;46.170;7.222;2023-07-20T09:46:22;3.40;;;2.40;;
13580;SDS011;6861;46.170;7.222;2023-07-20T09:48:53;3.88;;;2.35;;
13580;SDS011;6861;46.170;7.222;2023-07-20T09:51:24;4.93;;;2.40;;
13580;SDS011;6861;46.170;7.222;2023-07-20T09:53:52;4.35;;;2.60;;
13580;SDS011;6861;46.170;7.222;2023-07-20T09:56:23;4.82;;;2.55;;
13580;SDS011;6861;46.170;7.222;2023-07-20T09:58:53;4.38;;;2.80;;
13580;SDS011;6861;46.170;7.222;2023-07-20T10:01:21;6.65;;;2.97;;
13580;SDS011;6861;46.170;7.222;2023-07-20T10:03:52;3.83;;;2.38;;
13580;SDS011;6861;46.170;7.222;2023-07-20T10:06:23;3.70;;;2.47;;
13580;SDS011;6861;46.170;7.222;2023-07-20T10:08:52;2.97;;;2.60;;
13580;SDS011;6861;46.170;7.222;2023-07-20T10:11:24;2.75;;;2.30;;
13580;SDS011;6861;46.170;7.222;2023-07-20T10:13:58;5.30;;;2.60;;
13580;SDS011;6861;46.170;7.222;2023-07-20T10:16:28;5.68;;;2.78;;
13580;SDS011;6861;46.170;7.222;2023-07-20T10:18:59;5.93;;;2.72;;
13580;SDS011;6861;46.170;7.222;2023-07-20T10:21:45;2.88;;;2.53;;
13580;SDS011;6861;46.170;7.222;2023-07-20T10:24:21;4.00;;;2.70;;
13580;SDS011;6861;46.170;7.222;2023-07-20T10:26:53;4.20;;;2.65;;
13580;SDS011;6861;46.170;7.222;2023-07-20T10:29:22;3.45;;;2.80;;
13580;SDS011;6861;46.170;7.222;2023-07-20T10:31:51;5.55;;;2.90;;
13580;SDS011;6861;46.170;7.222;2023-07-20T10:34:21;3.92;;;2.80;;
13580;SDS011;6861;46.170;7.222;2023-07-20T10:36:50;4.07;;;2.38;;
13580;SDS011;6861;46.170;7.222;2023-07-20T10:39:22;6.03;;;2.45;;
13580;SDS011;6861;46.170;7.222;2023-07-20T10:41:53;4.70;;;2.90;;
13580;SDS011;6861;46.170;7.222;2023-07-20T10:44:27;4.93;;;2.83;;
13580;SDS011;6861;46.170;7.222;2023-07-20T10:46:59;3.72;;;2.60;;
13580;SDS011;6861;46.170;7.222;2023-07-20T10:49:29;3.92;;;2.42;;
13580;SDS011;6861;46.170;7.222;2023-07-20T10:52:03;5.20;;;2.78;;
13580;SDS011;6861;46.170;7.222;2023-07-20T10:54:34;5.63;;;2.60;;
13580;SDS011;6861;46.170;7.222;2023-07-20T10:57:23;4.80;;;2.50;;
13580;SDS011;6861;46.170;7.222;2023-07-20T11:00:06;10.55;;;2.78;;
13580;SDS011;6861;46.170;7.222;2023-07-20T11:02:47;4.82;;;2.70;;
13580;SDS011;6861;46.170;7.222;2023-07-20T11:08:10;5.47;;;2.38;;
13580;SDS011;6861;46.170;7.222;2023-07-20T11:10:39;8.82;;;2.78;;
13580;SDS011;6861;46.170;7.222;2023-07-20T11:16:01;5.80;;;2.35;;
13580;SDS011;6861;46.170;7.222;2023-07-20T11:18:33;4.07;;;2.67;;
13580;SDS011;6861;46.170;7.222;2023-07-20T11:21:07;5.65;;;2.70;;
13580;SDS011;6861;46.170;7.222;2023-07-20T11:23:38;2.97;;;2.25;;
13580;SDS011;6861;46.170;7.222;2023-07-20T11:26:07;4.15;;;2.65;;
13580;SDS011;6861;46.170;7.222;2023-07-20T11:28:37;5.18;;;2.25;;
13580;SDS011;6861;46.170;7.222;2023-07-20T11:31:06;5.45;;;2.80;;
13580;SDS011;6861;46.170;7.222;2023-07-20T11:33:34;3.83;;;2.22;;
13580;SDS011;6861;46.170;7.222;2023-07-20T11:36:03;3.58;;;2.55;;
13580;SDS011;6861;46.170;7.222;2023-07-20T11:38:52;5.82;;;3.10;;
13580;SDS011;6861;46.170;7.222;2023-07-20T11:41:21;7.75;;;2.25;;
13580;SDS011;6861;46.170;7.222;2023-07-20T11:43:51;3.85;;;2.53;;
13580;SDS011;6861;46.170;7.222;2023-07-20T11:46:19;4.85;;;2.45;;
13580;SDS011;6861;46.170;7.222;2023-07-20T11:48:48;5.40;;;2.63;;
13580;SDS011;6861;46.170;7.222;2023-07-20T11:51:16;3.90;;;2.50;;
13580;SDS011;6861;46.170;7.222;2023-07-20T11:53:44;4.78;;;2.65;;
13580;SDS011;6861;46.170;7.222;2023-07-20T11:56:14;6.82;;;2.83;;
13580;SDS011;6861;46.170;7.222;2023-07-20T11:58:43;4.28;;;2.67;;
13580;SDS011;6861;46.170;7.222;2023-07-20T12:01:13;4.05;;;2.50;;
13580;SDS011;6861;46.170;7.222;2023-07-20T12:03:42;3.80;;;2.50;;
13580;SDS011;6861;46.170;7.222;2023-07-20T12:06:11;3.65;;;2.10;;
13580;SDS011;6861;46.170;7.222;2023-07-20T12:08:41;5.18;;;2.50;;
13580;SDS011;6861;46.170;7.222;2023-07-20T12:11:10;4.70;;;2.40;;
13580;SDS011;6861;46.170;7.222;2023-07-20T12:13:39;3.47;;;2.45;;
13580;SDS011;6861;46.170;7.222;2023-07-20T12:16:11;4.38;;;2.65;;
13580;SDS011;6861;46.170;7.222;2023-07-20T12:18:42;3.95;;;2.67;;
13580;SDS011;6861;46.170;7.222;2023-07-20T12:21:11;3.38;;;2.65;;
13580;SDS011;6861;46.170;7.222;2023-07-20T12:23:39;5.63;;;2.40;;
13580;SDS011;6861;46.170;7.222;2023-07-20T12:26:08;4.30;;;2.53;;
13580;SDS011;6861;46.170;7.222;2023-07-20T12:28:41;5.18;;;2.55;;
13580;SDS011;6861;46.170;7.222;2023-07-20T12:31:10;3.63;;;2.60;;
13580;SDS011;6861;46.170;7.222;2023-07-20T12:33:41;8.68;;;2.25;;
13580;SDS011;6861;46.170;7.222;2023-07-20T12:36:09;4.57;;;2.65;;
13580;SDS011;6861;46.170;7.222;2023-07-20T12:38:38;3.47;;;2.75;;
13580;SDS011;6861;46.170;7.222;2023-07-20T12:41:09;5.90;;;3.00;;
13580;SDS011;6861;46.170;7.222;2023-07-20T12:43:40;4.38;;;2.65;;
13580;SDS011;6861;46.170;7.222;2023-07-20T12:46:08;3.38;;;2.50;;
13580;SDS011;6861;46.170;7.222;2023-07-20T12:48:38;3.03;;;2.42;;
13580;SDS011;6861;46.170;7.222;2023-07-20T12:51:12;3.33;;;2.30;;
13580;SDS011;6861;46.170;7.222;2023-07-20T12:53:40;5.25;;;2.22;;
13580;SDS011;6861;46.170;7.222;2023-07-20T12:56:08;4.30;;;2.40;;
13580;SDS011;6861;46.170;7.222;2023-07-20T12:58:39;6.30;;;2.40;;
13580;SDS011;6861;46.170;7.222;2023-07-20T13:01:07;3.35;;;2.60;;
13580;SDS011;6861;46.170;7.222;2023-07-20T13:03:35;4.20;;;2.65;;
13580;SDS011;6861;46.170;7.222;2023-07-20T13:06:25;5.95;;;2.78;;
13580;SDS011;6861;46.170;7.222;2023-07-20T13:08:54;5.07;;;2.25;;
13580;SDS011;6861;46.170;7.222;2023-07-20T13:11:24;5.82;;;2.83;;
13580;SDS011;6861;46.170;7.222;2023-07-20T13:13:53;4.85;;;2.50;;
13580;SDS011;6861;46.170;7.222;2023-07-20T13:16:21;3.08;;;2.30;;
13580;SDS011;6861;46.170;7.222;2023-07-20T13:18:49;3.60;;;2.70;;
13580;SDS011;6861;46.170;7.222;2023-07-20T13:21:17;3.95;;;2.53;;
13580;SDS011;6861;46.170;7.222;2023-07-20T13:23:51;4.55;;;2.40;;
13580;SDS011;6861;46.170;7.222;2023-07-20T13:26:20;2.63;;;2.35;;
13580;SDS011;6861;46.170;7.222;2023-07-20T13:28:48;2.85;;;2.13;;
13580;SDS011;6861;46.170;7.222;2023-07-20T13:31:16;2.63;;;2.30;;
13580;SDS011;6861;46.170;7.222;2023-07-20T13:33:45;3.88;;;2.45;;
13580;SDS011;6861;46.170;7.222;2023-07-20T13:36:18;4.40;;;2.30;;
13580;SDS011;6861;46.170;7.222;2023-07-20T13:38:48;5.53;;;2.40;;
13580;SDS011;6861;46.170;7.222;2023-07-20T13:41:18;4.78;;;2.38;;
13580;SDS011;6861;46.170;7.222;2023-07-20T13:43:47;3.45;;;2.30;;
13580;SDS011;6861;46.170;7.222;2023-07-20T13:46:15;3.83;;;2.35;;
13580;SDS011;6861;46.170;7.222;2023-07-20T13:49:03;4.57;;;2.55;;
13580;SDS011;6861;46.170;7.222;2023-07-20T13:51:39;4.13;;;2.63;;
13580;SDS011;6861;46.170;7.222;2023-07-20T13:54:07;3.60;;;2.40;;
13580;SDS011;6861;46.170;7.222;2023-07-20T13:56:40;3.38;;;2.50;;
13580;SDS011;6861;46.170;7.222;2023-07-20T13:59:08;9.68;;;2.67;;
13580;SDS011;6861;46.170;7.222;2023-07-20T14:01:37;4.13;;;2.30;;
13580;SDS011;6861;46.170;7.222;2023-07-20T14:04:06;9.02;;;2.42;;
13580;SDS011;6861;46.170;7.222;2023-07-20T14:06:35;4.25;;;2.40;;
13580;SDS011;6861;46.170;7.222;2023-07-20T14:09:04;4.15;;;2.40;;
13580;SDS011;6861;46.170;7.222;2023-07-20T14:11:32;3.88;;;2.25;;
13580;SDS011;6861;46.170;7.222;2023-07-20T14:14:04;3.80;;;2.22;;
13580;SDS011;6861;46.170;7.222;2023-07-20T14:16:32;5.57;;;2.50;;
13580;SDS011;6861;46.170;7.222;2023-07-20T14:19:01;3.45;;;2.40;;
13580;SDS011;6861;46.170;7.222;2023-07-20T14:21:31;3.88;;;2.53;;
13580;SDS011;6861;46.170;7.222;2023-07-20T14:23:59;4.18;;;2.60;;
13580;SDS011;6861;46.170;7.222;2023-07-20T14:29:57;3.60;;;2.40;;
13580;SDS011;6861;46.170;7.222;2023-07-20T14:32:25;7.03;;;2.40;;
13580;SDS011;6861;46.170;7.222;2023-07-20T14:34:54;6.90;;;2.60;;
13580;SDS011;6861;46.170;7.222;2023-07-20T14:37:22;4.88;;;2.53;;
13580;SDS011;6861;46.170;7.222;2023-07-20T14:39:50;2.55;;;2.20;;
13580;SDS011;6861;46.170;7.222;2023-07-20T14:42:19;3.42;;;2.08;;
13580;SDS011;6861;46.170;7.222;2023-07-20T14:44:47;3.17;;;2.15;;
13580;SDS011;6861;46.170;7.222;2023-07-20T14:47:18;4.07;;;2.17;;
13580;SDS011;6861;46.170;7.222;2023-07-20T14:49:47;2.88;;;2.40;;
13580;SDS011;6861;46.170;7.222;2023-07-20T14:52:15;3.60;;;1.90;;
13580;SDS011;6861;46.170;7.222;2023-07-20T14:54:44;2.33;;;1.77;;
13580;SDS011;6861;46.170;7.222;2023-07-20T14:57:12;3.65;;;1.95;;
13580;SDS011;6861;46.170;7.222;2023-07-20T14:59:41;2.35;;;2.08;;
13580;SDS011;6861;46.170;7.222;2023-07-20T15:02:10;6.30;;;2.13;;
13580;SDS011;6861;46.170;7.222;2023-07-20T15:04:46;4.30;;;2.10;;
13580;SDS011;6861;46.170;7.222;2023-07-20T15:07:15;4.65;;;1.98;;
13580;SDS011;6861;46.170;7.222;2023-07-20T15:09:45;3.17;;;1.90;;
13580;SDS011;6861;46.170;7.222;2023-07-20T15:12:13;2.63;;;1.83;;
13580;SDS011;6861;46.170;7.222;2023-07-20T15:14:42;3.00;;;2.00;;
13580;SDS011;6861;46.170;7.222;2023-07-20T15:17:10;1.83;;;1.70;;
13580;SDS011;6861;46.170;7.222;2023-07-20T15:19:39;3.22;;;1.73;;
13580;SDS011;6861;46.170;7.222;2023-07-20T15:22:08;2.72;;;1.52;;
13580;SDS011;6861;46.170;7.222;2023-07-20T15:24:37;2.67;;;2.00;;
13580;SDS011;6861;46.170;7.222;2023-07-20T15:27:06;4.30;;;1.92;;